sensor_id;sensor_type;location;lat;lon;timestamp;P1;durP1;ratioP1;P2;durP2;ratioP2
32295;SDS011;18781;51.550;5.418;2023-02-17T00:02:22;20.33;;;14.00;;
32295;SDS011;18781;51.550;5.418;2023-02-17T00:04:47;17.58;;;13.32;;
32295;SDS011;18781;51.550;5.418;2023-02-17T00:07:13;15.73;;;12.82;;
32295;SDS011;18781;51.550;5.418;2023-02-17T00:09:38;18.67;;;12.90;;
32295;SDS011;18781;51.550;5.418;2023-02-17T00:12:04;15.63;;;12.00;;
32295;SDS011;18781;51.550;5.418;2023-02-17T00:14:30;13.98;;;12.40;;
32295;SDS011;18781;51.550;5.418;2023-02-17T00:16:55;16.45;;;14.18;;
32295;SDS011;18781;51.550;5.418;2023-02-17T00:19:21;17.80;;;15.02;;
32295;SDS011;18781;51.550;5.418;2023-02-17T00:24:22;27.25;;;18.05;;
32295;SDS011;18781;51.550;5.418;2023-02-17T00:26:48;25.50;;;20.80;;
32295;SDS011;18781;51.550;5.418;2023-02-17T00:29:14;28.45;;;23.27;;
32295;SDS011;18781;51.550;5.418;2023-02-17T00:31:40;33.42;;;25.40;;
32295;SDS011;18781;51.550;5.418;2023-02-17T00:34:07;32.00;;;25.48;;
32295;SDS011;18781;51.550;5.418;2023-02-17T00:36:33;35.85;;;29.17;;
32295;SDS011;18781;51.550;5.418;2023-02-17T00:38:59;40.35;;;31.20;;
32295;SDS011;18781;51.550;5.418;2023-02-17T00:41:26;41.58;;;32.28;;
32295;SDS011;18781;51.550;5.418;2023-02-17T00:43:52;40.33;;;31.30;;
32295;SDS011;18781;51.550;5.418;2023-02-17T00:46:18;39.35;;;30.60;;
32295;SDS011;18781;51.550;5.418;2023-02-17T00:48:44;40.22;;;31.55;;
32295;SDS011;18781;51.550;5.418;2023-02-17T00:51:10;39.95;;;30.13;;
32295;SDS011;18781;51.550;5.418;2023-02-17T00:53:36;39.60;;;29.25;;
32295;SDS011;18781;51.550;5.418;2023-02-17T00:56:02;34.05;;;26.40;;
32295;SDS011;18781;51.550;5.418;2023-02-17T00:58:28;31.70;;;24.02;;
32295;SDS011;18781;51.550;5.418;2023-02-17T01:00:54;32.35;;;23.15;;
32295;SDS011;18781;51.550;5.418;2023-02-17T01:03:20;28.23;;;21.35;;
32295;SDS011;18781;51.550;5.418;2023-02-17T01:05:47;26.17;;;18.48;;
32295;SDS011;18781;51.550;5.418;2023-02-17T01:08:13;21.75;;;16.95;;
32295;SDS011;18781;51.550;5.418;2023-02-17T01:10:40;26.95;;;16.38;;
32295;SDS011;18781;51.550;5.418;2023-02-17T01:13:08;21.42;;;15.48;;
32295;SDS011;18781;51.550;5.418;2023-02-17T01:15:45;18.30;;;13.90;;
32295;SDS011;18781;51.550;5.418;2023-02-17T01:18:13;15.65;;;12.30;;
32295;SDS011;18781;51.550;5.418;2023-02-17T01:20:39;14.02;;;11.43;;
32295;SDS011;18781;51.550;5.418;2023-02-17T01:23:06;14.88;;;10.77;;
32295;SDS011;18781;51.550;5.418;2023-02-17T01:25:39;14.80;;;10.18;;
32295;SDS011;18781;51.550;5.418;2023-02-17T01:28:05;13.05;;;10.50;;
32295;SDS011;18781;51.550;5.418;2023-02-17T01:30:31;13.30;;;10.75;;
32295;SDS011;18781;51.550;5.418;2023-02-17T01:32:57;16.50;;;11.50;;
32295;SDS011;18781;51.550;5.418;2023-02-17T01:35:22;13.80;;;11.15;;
32295;SDS011;18781;51.550;5.418;2023-02-17T01:37:48;13.25;;;11.52;;
32295;SDS011;18781;51.550;5.418;2023-02-17T01:40:14;13.50;;;11.88;;
32295;SDS011;18781;51.550;5.418;2023-02-17T01:42:40;17.10;;;12.85;;
32295;SDS011;18781;51.550;5.418;2023-02-17T01:47:42;16.77;;;12.85;;
32295;SDS011;18781;51.550;5.418;2023-02-17T01:50:21;17.13;;;13.43;;
32295;SDS011;18781;51.550;5.418;2023-02-17T01:52:50;15.05;;;12.63;;
32295;SDS011;18781;51.550;5.418;2023-02-17T01:55:18;15.00;;;12.35;;
32295;SDS011;18781;51.550;5.418;2023-02-17T01:57:45;15.85;;;12.15;;
32295;SDS011;18781;51.550;5.418;2023-02-17T02:00:12;15.98;;;13.00;;
32295;SDS011;18781;51.550;5.418;2023-02-17T02:02:41;16.97;;;13.47;;
32295;SDS011;18781;51.550;5.418;2023-02-17T02:05:10;19.23;;;14.77;;
32295;SDS011;18781;51.550;5.418;2023-02-17T02:07:37;19.48;;;15.43;;
32295;SDS011;18781;51.550;5.418;2023-02-17T02:10:04;19.58;;;15.23;;
32295;SDS011;18781;51.550;5.418;2023-02-17T02:12:32;19.45;;;15.32;;
32295;SDS011;18781;51.550;5.418;2023-02-17T02:15:01;22.77;;;16.33;;
32295;SDS011;18781;51.550;5.418;2023-02-17T02:17:35;24.70;;;17.52;;
32295;SDS011;18781;51.550;5.418;2023-02-17T02:20:34;24.25;;;17.73;;
32295;SDS011;18781;51.550;5.418;2023-02-17T02:23:08;23.92;;;18.05;;
32295;SDS011;18781;51.550;5.418;2023-02-17T02:37:44;24.67;;;17.95;;
32295;SDS011;18781;51.550;5.418;2023-02-17T02:40:16;24.98;;;17.85;;
32295;SDS011;18781;51.550;5.418;2023-02-17T02:42:46;24.67;;;18.17;;
32295;SDS011;18781;51.550;5.418;2023-02-17T02:45:15;24.98;;;17.85;;
32295;SDS011;18781;51.550;5.418;2023-02-17T02:47:46;24.27;;;17.35;;
32295;SDS011;18781;51.550;5.418;2023-02-17T02:50:24;26.35;;;17.00;;
32295;SDS011;18781;51.550;5.418;2023-02-17T03:01:20;25.45;;;16.50;;
32295;SDS011;18781;51.550;5.418;2023-02-17T03:04:16;25.73;;;16.63;;
32295;SDS011;18781;51.550;5.418;2023-02-17T03:06:52;29.50;;;18.05;;
32295;SDS011;18781;51.550;5.418;2023-02-17T03:09:25;26.27;;;18.77;;
32295;SDS011;18781;51.550;5.418;2023-02-17T03:11:54;30.73;;;19.20;;
32295;SDS011;18781;51.550;5.418;2023-02-17T03:14:22;25.20;;;18.60;;
32295;SDS011;18781;51.550;5.418;2023-02-17T03:16:48;28.23;;;18.75;;
32295;SDS011;18781;51.550;5.418;2023-02-17T03:19:15;28.58;;;18.50;;
32295;SDS011;18781;51.550;5.418;2023-02-17T03:21:44;25.05;;;17.52;;
32295;SDS011;18781;51.550;5.418;2023-02-17T03:24:10;24.05;;;17.33;;
32295;SDS011;18781;51.550;5.418;2023-02-17T03:26:35;25.23;;;17.70;;
32295;SDS011;18781;51.550;5.418;2023-02-17T03:29:01;22.63;;;16.73;;
32295;SDS011;18781;51.550;5.418;2023-02-17T03:31:27;21.17;;;15.80;;
32295;SDS011;18781;51.550;5.418;2023-02-17T03:33:52;19.13;;;14.70;;
32295;SDS011;18781;51.550;5.418;2023-02-17T03:36:18;18.45;;;14.02;;
32295;SDS011;18781;51.550;5.418;2023-02-17T03:38:44;19.60;;;13.82;;
32295;SDS011;18781;51.550;5.418;2023-02-17T03:41:09;16.42;;;12.60;;
32295;SDS011;18781;51.550;5.418;2023-02-17T03:43:35;15.77;;;12.15;;
32295;SDS011;18781;51.550;5.418;2023-02-17T03:46:00;17.38;;;11.93;;
32295;SDS011;18781;51.550;5.418;2023-02-17T03:48:26;15.38;;;11.80;;
32295;SDS011;18781;51.550;5.418;2023-02-17T03:50:52;16.50;;;12.00;;
32295;SDS011;18781;51.550;5.418;2023-02-17T03:53:17;15.38;;;11.80;;
32295;SDS011;18781;51.550;5.418;2023-02-17T03:55:43;13.80;;;10.70;;
32295;SDS011;18781;51.550;5.418;2023-02-17T03:58:08;13.00;;;10.70;;
32295;SDS011;18781;51.550;5.418;2023-02-17T04:00:34;16.40;;;11.50;;
32295;SDS011;18781;51.550;5.418;2023-02-17T04:03:00;14.13;;;10.32;;
32295;SDS011;18781;51.550;5.418;2023-02-17T04:05:25;14.70;;;10.38;;
32295;SDS011;18781;51.550;5.418;2023-02-17T04:07:51;14.02;;;10.85;;
32295;SDS011;18781;51.550;5.418;2023-02-17T04:10:17;16.85;;;10.85;;
32295;SDS011;18781;51.550;5.418;2023-02-17T04:12:43;14.13;;;10.57;;
32295;SDS011;18781;51.550;5.418;2023-02-17T04:15:08;13.05;;;9.55;;
32295;SDS011;18781;51.550;5.418;2023-02-17T04:17:35;11.23;;;8.88;;
32295;SDS011;18781;51.550;5.418;2023-02-17T04:20:02;13.93;;;9.85;;
32295;SDS011;18781;51.550;5.418;2023-02-17T04:22:28;14.77;;;9.70;;
32295;SDS011;18781;51.550;5.418;2023-02-17T04:24:53;11.18;;;8.18;;
32295;SDS011;18781;51.550;5.418;2023-02-17T04:27:19;11.48;;;8.57;;
32295;SDS011;18781;51.550;5.418;2023-02-17T04:29:45;11.15;;;7.93;;
32295;SDS011;18781;51.550;5.418;2023-02-17T04:32:10;15.85;;;8.20;;
32295;SDS011;18781;51.550;5.418;2023-02-17T04:34:36;11.75;;;8.30;;
32295;SDS011;18781;51.550;5.418;2023-02-17T04:37:01;12.15;;;8.35;;
32295;SDS011;18781;51.550;5.418;2023-02-17T04:39:27;13.63;;;9.85;;
32295;SDS011;18781;51.550;5.418;2023-02-17T04:41:52;12.48;;;8.52;;
32295;SDS011;18781;51.550;5.418;2023-02-17T04:44:18;14.60;;;9.05;;
32295;SDS011;18781;51.550;5.418;2023-02-17T04:46:43;12.50;;;8.18;;
32295;SDS011;18781;51.550;5.418;2023-02-17T04:49:09;13.52;;;8.02;;
32295;SDS011;18781;51.550;5.418;2023-02-17T04:51:34;12.25;;;7.70;;
32295;SDS011;18781;51.550;5.418;2023-02-17T04:54:00;12.63;;;7.10;;
32295;SDS011;18781;51.550;5.418;2023-02-17T04:56:26;10.40;;;7.82;;
32295;SDS011;18781;51.550;5.418;2023-02-17T04:58:51;13.85;;;8.10;;
32295;SDS011;18781;51.550;5.418;2023-02-17T05:01:17;10.50;;;7.93;;
32295;SDS011;18781;51.550;5.418;2023-02-17T05:03:42;12.05;;;8.02;;
32295;SDS011;18781;51.550;5.418;2023-02-17T05:06:08;10.15;;;7.47;;
32295;SDS011;18781;51.550;5.418;2023-02-17T05:08:33;11.05;;;7.80;;
32295;SDS011;18781;51.550;5.418;2023-02-17T05:10:59;13.95;;;7.40;;
32295;SDS011;18781;51.550;5.418;2023-02-17T05:13:24;10.77;;;7.35;;
32295;SDS011;18781;51.550;5.418;2023-02-17T05:15:51;9.32;;;7.38;;
32295;SDS011;18781;51.550;5.418;2023-02-17T05:18:17;11.02;;;7.53;;
32295;SDS011;18781;51.550;5.418;2023-02-17T05:20:42;9.75;;;7.20;;
32295;SDS011;18781;51.550;5.418;2023-02-17T05:23:08;13.73;;;7.35;;
32295;SDS011;18781;51.550;5.418;2023-02-17T05:25:33;10.82;;;7.40;;
32295;SDS011;18781;51.550;5.418;2023-02-17T05:27:59;11.48;;;6.70;;
32295;SDS011;18781;51.550;5.418;2023-02-17T05:30:24;9.25;;;6.68;;
32295;SDS011;18781;51.550;5.418;2023-02-17T05:32:50;9.45;;;6.75;;
32295;SDS011;18781;51.550;5.418;2023-02-17T05:35:16;10.25;;;6.90;;
32295;SDS011;18781;51.550;5.418;2023-02-17T05:37:41;10.05;;;7.28;;
32295;SDS011;18781;51.550;5.418;2023-02-17T05:40:07;10.45;;;6.95;;
32295;SDS011;18781;51.550;5.418;2023-02-17T05:42:34;11.15;;;7.13;;
32295;SDS011;18781;51.550;5.418;2023-02-17T05:44:59;10.88;;;6.85;;
32295;SDS011;18781;51.550;5.418;2023-02-17T05:47:25;12.93;;;7.75;;
32295;SDS011;18781;51.550;5.418;2023-02-17T05:49:51;10.60;;;7.55;;
32295;SDS011;18781;51.550;5.418;2023-02-17T05:52:16;10.50;;;7.50;;
32295;SDS011;18781;51.550;5.418;2023-02-17T05:54:42;12.18;;;8.15;;
32295;SDS011;18781;51.550;5.418;2023-02-17T05:57:08;12.48;;;8.38;;
32295;SDS011;18781;51.550;5.418;2023-02-17T05:59:34;12.38;;;8.50;;
32295;SDS011;18781;51.550;5.418;2023-02-17T06:01:59;12.45;;;8.55;;
32295;SDS011;18781;51.550;5.418;2023-02-17T06:04:25;12.85;;;8.63;;
32295;SDS011;18781;51.550;5.418;2023-02-17T06:06:50;12.93;;;8.70;;
32295;SDS011;18781;51.550;5.418;2023-02-17T06:09:17;14.73;;;9.43;;
32295;SDS011;18781;51.550;5.418;2023-02-17T06:11:43;19.40;;;9.45;;
32295;SDS011;18781;51.550;5.418;2023-02-17T06:14:09;24.35;;;9.40;;
32295;SDS011;18781;51.550;5.418;2023-02-17T06:16:34;17.52;;;9.55;;
32295;SDS011;18781;51.550;5.418;2023-02-17T06:19:00;16.02;;;9.88;;
32295;SDS011;18781;51.550;5.418;2023-02-17T06:21:26;16.30;;;10.80;;
32295;SDS011;18781;51.550;5.418;2023-02-17T06:23:52;16.20;;;9.52;;
32295;SDS011;18781;51.550;5.418;2023-02-17T06:26:18;18.75;;;9.90;;
32295;SDS011;18781;51.550;5.418;2023-02-17T06:28:43;15.32;;;10.48;;
32295;SDS011;18781;51.550;5.418;2023-02-17T06:31:09;19.05;;;11.23;;
32295;SDS011;18781;51.550;5.418;2023-02-17T06:33:35;17.83;;;11.02;;
32295;SDS011;18781;51.550;5.418;2023-02-17T06:36:00;17.67;;;11.07;;
32295;SDS011;18781;51.550;5.418;2023-02-17T06:38:26;17.95;;;10.55;;
32295;SDS011;18781;51.550;5.418;2023-02-17T06:40:52;16.75;;;10.88;;
32295;SDS011;18781;51.550;5.418;2023-02-17T06:43:18;20.90;;;10.38;;
32295;SDS011;18781;51.550;5.418;2023-02-17T06:45:44;18.95;;;10.68;;
32295;SDS011;18781;51.550;5.418;2023-02-17T06:48:09;24.40;;;11.57;;
32295;SDS011;18781;51.550;5.418;2023-02-17T06:50:35;19.52;;;10.90;;
32295;SDS011;18781;51.550;5.418;2023-02-17T06:53:01;14.82;;;10.20;;
32295;SDS011;18781;51.550;5.418;2023-02-17T06:55:26;17.15;;;10.77;;
32295;SDS011;18781;51.550;5.418;2023-02-17T06:57:52;18.20;;;11.10;;
32295;SDS011;18781;51.550;5.418;2023-02-17T07:00:17;15.80;;;10.55;;
32295;SDS011;18781;51.550;5.418;2023-02-17T07:02:44;17.75;;;10.68;;
32295;SDS011;18781;51.550;5.418;2023-02-17T07:05:09;20.05;;;11.07;;
32295;SDS011;18781;51.550;5.418;2023-02-17T07:07:35;18.88;;;11.10;;
32295;SDS011;18781;51.550;5.418;2023-02-17T07:10:00;23.02;;;11.50;;
32295;SDS011;18781;51.550;5.418;2023-02-17T07:12:27;18.65;;;12.05;;
32295;SDS011;18781;51.550;5.418;2023-02-17T07:14:53;17.92;;;11.75;;
32295;SDS011;18781;51.550;5.418;2023-02-17T07:17:18;16.95;;;10.82;;
32295;SDS011;18781;51.550;5.418;2023-02-17T07:19:44;17.90;;;10.95;;
32295;SDS011;18781;51.550;5.418;2023-02-17T07:22:09;21.77;;;11.85;;
32295;SDS011;18781;51.550;5.418;2023-02-17T07:24:35;20.48;;;11.32;;
32295;SDS011;18781;51.550;5.418;2023-02-17T07:27:02;18.90;;;11.65;;
32295;SDS011;18781;51.550;5.418;2023-02-17T07:29:29;18.10;;;12.15;;
32295;SDS011;18781;51.550;5.418;2023-02-17T07:31:54;20.42;;;11.88;;
32295;SDS011;18781;51.550;5.418;2023-02-17T07:34:20;19.75;;;11.20;;
32295;SDS011;18781;51.550;5.418;2023-02-17T07:36:46;15.30;;;11.27;;
32295;SDS011;18781;51.550;5.418;2023-02-17T07:39:11;19.52;;;11.02;;
32295;SDS011;18781;51.550;5.418;2023-02-17T07:41:37;19.55;;;11.80;;
32295;SDS011;18781;51.550;5.418;2023-02-17T07:44:03;20.13;;;11.38;;
32295;SDS011;18781;51.550;5.418;2023-02-17T07:46:28;19.45;;;10.70;;
32295;SDS011;18781;51.550;5.418;2023-02-17T07:48:55;17.20;;;12.07;;
32295;SDS011;18781;51.550;5.418;2023-02-17T07:51:21;18.40;;;11.60;;
32295;SDS011;18781;51.550;5.418;2023-02-17T07:53:49;20.33;;;12.07;;
32295;SDS011;18781;51.550;5.418;2023-02-17T07:56:16;20.15;;;11.40;;
32295;SDS011;18781;51.550;5.418;2023-02-17T07:58:43;19.58;;;11.90;;
32295;SDS011;18781;51.550;5.418;2023-02-17T08:01:11;19.83;;;13.30;;
32295;SDS011;18781;51.550;5.418;2023-02-17T08:03:41;18.17;;;11.63;;
32295;SDS011;18781;51.550;5.418;2023-02-17T08:06:14;17.30;;;11.40;;
32295;SDS011;18781;51.550;5.418;2023-02-17T08:08:45;17.60;;;11.30;;
32295;SDS011;18781;51.550;5.418;2023-02-17T08:11:31;18.17;;;10.98;;
32295;SDS011;18781;51.550;5.418;2023-02-17T08:14:15;18.88;;;12.38;;
32295;SDS011;18781;51.550;5.418;2023-02-17T08:16:41;18.02;;;12.70;;
32295;SDS011;18781;51.550;5.418;2023-02-17T08:19:07;15.98;;;12.10;;
32295;SDS011;18781;51.550;5.418;2023-02-17T08:21:33;16.63;;;11.20;;
32295;SDS011;18781;51.550;5.418;2023-02-17T08:23:58;15.48;;;10.63;;
32295;SDS011;18781;51.550;5.418;2023-02-17T08:26:24;13.73;;;10.02;;
32295;SDS011;18781;51.550;5.418;2023-02-17T08:28:50;16.27;;;10.27;;
32295;SDS011;18781;51.550;5.418;2023-02-17T08:31:20;13.65;;;9.82;;
32295;SDS011;18781;51.550;5.418;2023-02-17T08:33:50;16.02;;;10.00;;
32295;SDS011;18781;51.550;5.418;2023-02-17T08:36:16;13.38;;;9.27;;
32295;SDS011;18781;51.550;5.418;2023-02-17T08:38:42;13.05;;;9.52;;
32295;SDS011;18781;51.550;5.418;2023-02-17T08:41:16;12.07;;;8.80;;
32295;SDS011;18781;51.550;5.418;2023-02-17T08:43:53;12.15;;;9.40;;
32295;SDS011;18781;51.550;5.418;2023-02-17T08:46:19;11.90;;;8.93;;
32295;SDS011;18781;51.550;5.418;2023-02-17T08:48:46;17.50;;;9.65;;
32295;SDS011;18781;51.550;5.418;2023-02-17T08:51:12;12.85;;;10.18;;
32295;SDS011;18781;51.550;5.418;2023-02-17T08:53:39;13.85;;;9.45;;
32295;SDS011;18781;51.550;5.418;2023-02-17T08:56:05;13.00;;;9.57;;
32295;SDS011;18781;51.550;5.418;2023-02-17T08:58:32;15.65;;;9.23;;
32295;SDS011;18781;51.550;5.418;2023-02-17T09:00:57;18.00;;;9.32;;
32295;SDS011;18781;51.550;5.418;2023-02-17T09:03:23;13.30;;;9.70;;
32295;SDS011;18781;51.550;5.418;2023-02-17T09:05:52;11.35;;;9.00;;
32295;SDS011;18781;51.550;5.418;2023-02-17T09:10:44;12.25;;;9.60;;
32295;SDS011;18781;51.550;5.418;2023-02-17T09:13:09;12.00;;;9.88;;
32295;SDS011;18781;51.550;5.418;2023-02-17T09:15:35;12.65;;;10.07;;
32295;SDS011;18781;51.550;5.418;2023-02-17T09:18:01;13.68;;;10.25;;
32295;SDS011;18781;51.550;5.418;2023-02-17T09:20:26;12.07;;;10.10;;
32295;SDS011;18781;51.550;5.418;2023-02-17T09:22:52;12.07;;;10.00;;
32295;SDS011;18781;51.550;5.418;2023-02-17T09:25:17;12.48;;;9.48;;
32295;SDS011;18781;51.550;5.418;2023-02-17T09:27:43;11.57;;;9.27;;
32295;SDS011;18781;51.550;5.418;2023-02-17T09:30:09;11.25;;;10.00;;
32295;SDS011;18781;51.550;5.418;2023-02-17T09:32:35;12.65;;;9.45;;
32295;SDS011;18781;51.550;5.418;2023-02-17T09:35:00;13.02;;;9.80;;
32295;SDS011;18781;51.550;5.418;2023-02-17T09:37:29;11.23;;;9.20;;
32295;SDS011;18781;51.550;5.418;2023-02-17T09:39:55;10.23;;;9.23;;
32295;SDS011;18781;51.550;5.418;2023-02-17T09:42:22;14.82;;;10.50;;
32295;SDS011;18781;51.550;5.418;2023-02-17T09:45:04;13.23;;;11.20;;
32295;SDS011;18781;51.550;5.418;2023-02-17T09:47:54;14.80;;;10.40;;
32295;SDS011;18781;51.550;5.418;2023-02-17T09:50:27;12.02;;;10.82;;
32295;SDS011;18781;51.550;5.418;2023-02-17T09:53:03;14.63;;;11.50;;
32295;SDS011;18781;51.550;5.418;2023-02-17T09:55:32;13.07;;;10.52;;
32295;SDS011;18781;51.550;5.418;2023-02-17T09:58:08;13.48;;;11.82;;
32295;SDS011;18781;51.550;5.418;2023-02-17T10:00:46;13.80;;;12.30;;
32295;SDS011;18781;51.550;5.418;2023-02-17T10:05:46;15.15;;;13.55;;
32295;SDS011;18781;51.550;5.418;2023-02-17T10:08:18;20.55;;;14.35;;
32295;SDS011;18781;51.550;5.418;2023-02-17T10:10:52;15.82;;;14.00;;
32295;SDS011;18781;51.550;5.418;2023-02-17T10:13:24;15.27;;;13.68;;
32295;SDS011;18781;51.550;5.418;2023-02-17T10:15:57;15.00;;;13.13;;
32295;SDS011;18781;51.550;5.418;2023-02-17T10:18:36;15.45;;;13.13;;
32295;SDS011;18781;51.550;5.418;2023-02-17T10:21:14;15.45;;;12.88;;
32295;SDS011;18781;51.550;5.418;2023-02-17T10:23:48;14.25;;;12.65;;
32295;SDS011;18781;51.550;5.418;2023-02-17T10:29:06;13.48;;;12.18;;
32295;SDS011;18781;51.550;5.418;2023-02-17T10:31:44;13.63;;;12.23;;
32295;SDS011;18781;51.550;5.418;2023-02-17T10:37:04;17.05;;;14.05;;
32295;SDS011;18781;51.550;5.418;2023-02-17T10:39:48;14.90;;;12.88;;
32295;SDS011;18781;51.550;5.418;2023-02-17T10:44:50;17.58;;;15.18;;
32295;SDS011;18781;51.550;5.418;2023-02-17T10:47:18;18.20;;;15.70;;
32295;SDS011;18781;51.550;5.418;2023-02-17T10:49:47;18.35;;;15.88;;
32295;SDS011;18781;51.550;5.418;2023-02-17T10:52:26;18.88;;;16.98;;
32295;SDS011;18781;51.550;5.418;2023-02-17T10:55:03;18.98;;;16.52;;
32295;SDS011;18781;51.550;5.418;2023-02-17T10:57:32;17.15;;;15.45;;
32295;SDS011;18781;51.550;5.418;2023-02-17T11:00:02;17.25;;;15.43;;
32295;SDS011;18781;51.550;5.418;2023-02-17T11:02:39;17.33;;;15.43;;
32295;SDS011;18781;51.550;5.418;2023-02-17T11:05:07;19.35;;;17.15;;
32295;SDS011;18781;51.550;5.418;2023-02-17T11:07:43;19.20;;;17.17;;
32295;SDS011;18781;51.550;5.418;2023-02-17T11:10:20;19.50;;;17.35;;
32295;SDS011;18781;51.550;5.418;2023-02-17T11:12:47;20.05;;;17.60;;
32295;SDS011;18781;51.550;5.418;2023-02-17T11:15:18;19.92;;;17.80;;
32295;SDS011;18781;51.550;5.418;2023-02-17T11:17:46;20.70;;;18.05;;
32295;SDS011;18781;51.550;5.418;2023-02-17T11:22:42;19.73;;;17.63;;
32295;SDS011;18781;51.550;5.418;2023-02-17T11:27:53;20.90;;;16.02;;
32295;SDS011;18781;51.550;5.418;2023-02-17T11:30:19;17.10;;;15.13;;
32295;SDS011;18781;51.550;5.418;2023-02-17T11:32:45;18.08;;;15.60;;
32295;SDS011;18781;51.550;5.418;2023-02-17T11:35:25;17.23;;;15.43;;
32295;SDS011;18781;51.550;5.418;2023-02-17T11:38:31;17.70;;;14.15;;
32295;SDS011;18781;51.550;5.418;2023-02-17T11:43:23;15.88;;;14.10;;
32295;SDS011;18781;51.550;5.418;2023-02-17T11:45:54;18.17;;;16.02;;
32295;SDS011;18781;51.550;5.418;2023-02-17T11:51:23;20.88;;;15.48;;
32295;SDS011;18781;51.550;5.418;2023-02-17T11:57:23;16.63;;;12.80;;
32295;SDS011;18781;51.550;5.418;2023-02-17T11:59:59;14.85;;;12.13;;
32295;SDS011;18781;51.550;5.418;2023-02-17T12:08:33;21.58;;;19.17;;
32295;SDS011;18781;51.550;5.418;2023-02-17T12:22:18;19.30;;;15.13;;
32295;SDS011;18781;51.550;5.418;2023-02-17T12:33:37;22.40;;;17.95;;
32295;SDS011;18781;51.550;5.418;2023-02-17T12:36:22;22.33;;;18.80;;
32295;SDS011;18781;51.550;5.418;2023-02-17T12:38:56;22.15;;;18.90;;
32295;SDS011;18781;51.550;5.418;2023-02-17T12:41:38;22.80;;;18.92;;
32295;SDS011;18781;51.550;5.418;2023-02-17T12:44:11;22.80;;;18.33;;
32295;SDS011;18781;51.550;5.418;2023-02-17T12:46:42;21.33;;;18.85;;
32295;SDS011;18781;51.550;5.418;2023-02-17T12:49:15;24.50;;;21.90;;
32295;SDS011;18781;51.550;5.418;2023-02-17T12:51:53;29.23;;;23.98;;
32295;SDS011;18781;51.550;5.418;2023-02-17T12:54:31;27.42;;;24.52;;
32295;SDS011;18781;51.550;5.418;2023-02-17T12:59:35;28.20;;;25.02;;
32295;SDS011;18781;51.550;5.418;2023-02-17T13:04:58;26.23;;;22.83;;
32295;SDS011;18781;51.550;5.418;2023-02-17T13:10:20;29.60;;;22.50;;
32295;SDS011;18781;51.550;5.418;2023-02-17T13:13:25;32.15;;;22.77;;
32295;SDS011;18781;51.550;5.418;2023-02-17T13:16:13;28.48;;;21.58;;
32295;SDS011;18781;51.550;5.418;2023-02-17T13:18:44;26.67;;;20.77;;
32295;SDS011;18781;51.550;5.418;2023-02-17T13:21:25;25.42;;;20.58;;
32295;SDS011;18781;51.550;5.418;2023-02-17T13:24:04;23.95;;;19.80;;
32295;SDS011;18781;51.550;5.418;2023-02-17T13:26:41;27.85;;;20.27;;
32295;SDS011;18781;51.550;5.418;2023-02-17T13:31:45;22.80;;;17.80;;
32295;SDS011;18781;51.550;5.418;2023-02-17T13:39:43;25.40;;;16.23;;
32295;SDS011;18781;51.550;5.418;2023-02-17T13:45:09;22.00;;;16.00;;
32295;SDS011;18781;51.550;5.418;2023-02-17T13:47:37;26.88;;;17.00;;
32295;SDS011;18781;51.550;5.418;2023-02-17T13:50:05;21.35;;;16.92;;
32295;SDS011;18781;51.550;5.418;2023-02-17T13:52:49;17.02;;;14.57;;
32295;SDS011;18781;51.550;5.418;2023-02-17T13:55:17;21.55;;;16.08;;
32295;SDS011;18781;51.550;5.418;2023-02-17T13:57:43;21.30;;;15.25;;
32295;SDS011;18781;51.550;5.418;2023-02-17T14:02:49;19.95;;;15.20;;
32295;SDS011;18781;51.550;5.418;2023-02-17T14:05:25;20.57;;;15.07;;
32295;SDS011;18781;51.550;5.418;2023-02-17T14:08:03;18.50;;;14.45;;
32295;SDS011;18781;51.550;5.418;2023-02-17T14:10:30;18.42;;;13.73;;
32295;SDS011;18781;51.550;5.418;2023-02-17T14:12:56;19.88;;;14.65;;
32295;SDS011;18781;51.550;5.418;2023-02-17T14:15:24;17.67;;;14.90;;
32295;SDS011;18781;51.550;5.418;2023-02-17T14:17:52;22.52;;;13.63;;
32295;SDS011;18781;51.550;5.418;2023-02-17T14:23:11;19.75;;;12.52;;
32295;SDS011;18781;51.550;5.418;2023-02-17T14:25:43;16.77;;;11.73;;
32295;SDS011;18781;51.550;5.418;2023-02-17T14:28:21;15.40;;;11.88;;
32295;SDS011;18781;51.550;5.418;2023-02-17T14:30:52;14.52;;;11.57;;
32295;SDS011;18781;51.550;5.418;2023-02-17T14:33:24;12.73;;;10.38;;
32295;SDS011;18781;51.550;5.418;2023-02-17T14:36:03;18.05;;;9.93;;
32295;SDS011;18781;51.550;5.418;2023-02-17T14:38:39;10.60;;;7.65;;
32295;SDS011;18781;51.550;5.418;2023-02-17T14:41:05;9.10;;;6.10;;
32295;SDS011;18781;51.550;5.418;2023-02-17T14:43:33;9.20;;;6.55;;
32295;SDS011;18781;51.550;5.418;2023-02-17T14:45:59;7.07;;;5.47;;
32295;SDS011;18781;51.550;5.418;2023-02-17T14:48:24;10.32;;;5.13;;
32295;SDS011;18781;51.550;5.418;2023-02-17T14:50:50;11.68;;;5.20;;
32295;SDS011;18781;51.550;5.418;2023-02-17T14:56:01;8.98;;;4.70;;
32295;SDS011;18781;51.550;5.418;2023-02-17T14:58:46;10.50;;;4.75;;
32295;SDS011;18781;51.550;5.418;2023-02-17T15:01:13;23.92;;;16.23;;
32295;SDS011;18781;51.550;5.418;2023-02-17T15:03:43;8.80;;;4.88;;
32295;SDS011;18781;51.550;5.418;2023-02-17T15:06:15;8.55;;;4.40;;
32295;SDS011;18781;51.550;5.418;2023-02-17T15:08:43;7.65;;;3.80;;
32295;SDS011;18781;51.550;5.418;2023-02-17T15:11:28;6.85;;;3.97;;
32295;SDS011;18781;51.550;5.418;2023-02-17T15:13:56;8.25;;;3.33;;
32295;SDS011;18781;51.550;5.418;2023-02-17T15:16:37;5.97;;;3.33;;
32295;SDS011;18781;51.550;5.418;2023-02-17T15:19:02;4.13;;;3.05;;
32295;SDS011;18781;51.550;5.418;2023-02-17T15:21:29;11.15;;;3.58;;
32295;SDS011;18781;51.550;5.418;2023-02-17T15:23:57;5.70;;;3.00;;
32295;SDS011;18781;51.550;5.418;2023-02-17T15:26:27;5.40;;;3.08;;
32295;SDS011;18781;51.550;5.418;2023-02-17T15:28:54;5.85;;;3.17;;
32295;SDS011;18781;51.550;5.418;2023-02-17T15:31:23;5.50;;;3.00;;
32295;SDS011;18781;51.550;5.418;2023-02-17T15:33:53;6.60;;;2.97;;
32295;SDS011;18781;51.550;5.418;2023-02-17T15:36:21;4.97;;;3.20;;
32295;SDS011;18781;51.550;5.418;2023-02-17T15:38:47;7.18;;;3.00;;
32295;SDS011;18781;51.550;5.418;2023-02-17T15:41:15;9.15;;;2.97;;
32295;SDS011;18781;51.550;5.418;2023-02-17T15:43:44;7.38;;;3.20;;
32295;SDS011;18781;51.550;5.418;2023-02-17T15:46:12;8.90;;;3.38;;
32295;SDS011;18781;51.550;5.418;2023-02-17T15:48:40;7.95;;;3.78;;
32295;SDS011;18781;51.550;5.418;2023-02-17T15:51:08;5.35;;;3.35;;
32295;SDS011;18781;51.550;5.418;2023-02-17T15:53:36;6.00;;;3.08;;
32295;SDS011;18781;51.550;5.418;2023-02-17T15:56:02;7.90;;;4.07;;
32295;SDS011;18781;51.550;5.418;2023-02-17T15:58:33;7.72;;;4.28;;
32295;SDS011;18781;51.550;5.418;2023-02-17T16:01:00;7.07;;;3.88;;
32295;SDS011;18781;51.550;5.418;2023-02-17T16:03:27;8.23;;;4.13;;
32295;SDS011;18781;51.550;5.418;2023-02-17T16:05:53;6.10;;;3.88;;
32295;SDS011;18781;51.550;5.418;2023-02-17T16:08:19;8.20;;;4.10;;
32295;SDS011;18781;51.550;5.418;2023-02-17T16:10:44;9.57;;;4.60;;
32295;SDS011;18781;51.550;5.418;2023-02-17T16:13:14;8.25;;;4.03;;
32295;SDS011;18781;51.550;5.418;2023-02-17T16:15:43;13.57;;;4.38;;
32295;SDS011;18781;51.550;5.418;2023-02-17T16:18:16;5.10;;;4.07;;
32295;SDS011;18781;51.550;5.418;2023-02-17T16:20:45;8.73;;;4.30;;
32295;SDS011;18781;51.550;5.418;2023-02-17T16:23:11;5.88;;;4.25;;
32295;SDS011;18781;51.550;5.418;2023-02-17T16:25:37;7.30;;;4.63;;